sensor_id;sensor_type;location;lat;lon;timestamp;temperature;humidity
73438;DHT22;66471;56.532;21.020;2024-01-07T08:59:20;-12.30;85.60
73438;DHT22;66471;56.532;21.020;2024-01-07T09:01:48;-12.20;85.70
73438;DHT22;66471;56.532;21.020;2024-01-07T09:04:15;-12.20;84.60
73438;DHT22;66471;56.532;21.020;2024-01-07T09:06:44;-12.10;84.70
73438;DHT22;66471;56.532;21.020;2024-01-07T09:09:12;-12.10;83.90
73438;DHT22;66471;56.532;21.020;2024-01-07T09:11:39;-12.20;82.30
73438;DHT22;66471;56.532;21.020;2024-01-07T09:14:06;-12.20;81.90
73438;DHT22;66471;56.532;21.020;2024-01-07T09:16:35;-12.10;81.20
73438;DHT22;66471;56.532;21.020;2024-01-07T09:19:02;-12.20;80.00
73438;DHT22;66471;56.532;21.020;2024-01-07T09:21:29;-12.10;80.80
73438;DHT22;66471;56.532;21.020;2024-01-07T09:23:57;-12.10;79.40
73438;DHT22;66471;56.532;21.020;2024-01-07T09:26:24;-12.10;79.80
73438;DHT22;66471;56.532;21.020;2024-01-07T09:28:51;-12.00;79.40
73438;DHT22;66471;56.532;21.020;2024-01-07T09:31:18;-12.00;80.00
73438;DHT22;66471;56.532;21.020;2024-01-07T09:33:46;-12.00;79.70
73438;DHT22;66471;56.532;21.020;2024-01-07T09:36:14;-11.80;80.00
73438;DHT22;66471;56.532;21.020;2024-01-07T09:38:55;-11.80;78.50
73438;DHT22;66471;56.532;21.020;2024-01-07T09:41:22;-11.70;78.90
73438;DHT22;66471;56.532;21.020;2024-01-07T09:43:51;-11.70;79.40
73438;DHT22;66471;56.532;21.020;2024-01-07T09:46:22;-11.70;79.50
73438;DHT22;66471;56.532;21.020;2024-01-07T09:48:51;-11.60;79.20
73438;DHT22;66471;56.532;21.020;2024-01-07T09:51:22;-11.50;78.60
73438;DHT22;66471;56.532;21.020;2024-01-07T09:53:54;-11.50;78.00
73438;DHT22;66471;56.532;21.020;2024-01-07T09:56:25;-11.40;77.40
73438;DHT22;66471;56.532;21.020;2024-01-07T09:58:54;-11.40;76.80
73438;DHT22;66471;56.532;21.020;2024-01-07T10:01:21;-11.50;76.50
73438;DHT22;66471;56.532;21.020;2024-01-07T10:03:48;-11.40;76.40
73438;DHT22;66471;56.532;21.020;2024-01-07T10:06:18;-11.30;76.30
73438;DHT22;66471;56.532;21.020;2024-01-07T10:08:46;-11.00;77.50
73438;DHT22;66471;56.532;21.020;2024-01-07T10:11:14;-10.60;76.70
73438;DHT22;66471;56.532;21.020;2024-01-07T10:13:41;-10.00;74.30
73438;DHT22;66471;56.532;21.020;2024-01-07T10:16:08;-9.80;72.80
73438;DHT22;66471;56.532;21.020;2024-01-07T10:18:37;-9.30;71.70
73438;DHT22;66471;56.532;21.020;2024-01-07T12:03:08;-10.10;71.50
73438;DHT22;66471;56.532;21.020;2024-01-07T12:05:35;-9.60;70.80
73438;DHT22;66471;56.532;21.020;2024-01-07T12:08:03;-9.70;71.00
73438;DHT22;66471;56.532;21.020;2024-01-07T12:10:30;-10.00;72.30
73438;DHT22;66471;56.532;21.020;2024-01-07T12:12:58;-10.10;73.10
73438;DHT22;66471;56.532;21.020;2024-01-07T12:15:25;-10.20;74.40
73438;DHT22;66471;56.532;21.020;2024-01-07T12:17:59;-10.20;74.20
73438;DHT22;66471;56.532;21.020;2024-01-07T12:20:29;-10.00;74.60
73438;DHT22;66471;56.532;21.020;2024-01-07T12:22:57;-10.00;73.70
73438;DHT22;66471;56.532;21.020;2024-01-07T12:25:25;-10.00;73.80
73438;DHT22;66471;56.532;21.020;2024-01-07T12:27:52;-10.00;73.30
73438;DHT22;66471;56.532;21.020;2024-01-07T12:30:20;-10.10;73.80
73438;DHT22;66471;56.532;21.020;2024-01-07T12:32:51;-10.40;74.70
73438;DHT22;66471;56.532;21.020;2024-01-07T12:35:18;-10.40;75.70
73438;DHT22;66471;56.532;21.020;2024-01-07T12:37:47;-10.20;75.50
73438;DHT22;66471;56.532;21.020;2024-01-07T12:40:15;-10.30;75.80
73438;DHT22;66471;56.532;21.020;2024-01-07T12:42:42;-10.00;74.60
73438;DHT22;66471;56.532;21.020;2024-01-07T12:45:16;-9.80;74.70
73438;DHT22;66471;56.532;21.020;2024-01-07T12:47:43;-9.60;73.40
73438;DHT22;66471;56.532;21.020;2024-01-07T12:50:12;-9.80;73.40
73438;DHT22;66471;56.532;21.020;2024-01-07T12:52:40;-9.90;74.60
73438;DHT22;66471;56.532;21.020;2024-01-07T12:55:08;-9.70;75.50
73438;DHT22;66471;56.532;21.020;2024-01-07T12:57:35;-9.40;73.20
73438;DHT22;66471;56.532;21.020;2024-01-07T13:00:03;-9.70;74.00
73438;DHT22;66471;56.532;21.020;2024-01-07T13:02:34;-9.80;75.90
73438;DHT22;66471;56.532;21.020;2024-01-07T13:05:01;-9.80;75.30
73438;DHT22;66471;56.532;21.020;2024-01-07T13:07:30;-10.10;75.60
73438;DHT22;66471;56.532;21.020;2024-01-07T13:09:58;-10.30;77.00
73438;DHT22;66471;56.532;21.020;2024-01-07T13:12:26;-10.20;77.50
73438;DHT22;66471;56.532;21.020;2024-01-07T13:15:06;-10.40;78.30
73438;DHT22;66471;56.532;21.020;2024-01-07T13:17:33;-10.70;79.20
73438;DHT22;66471;56.532;21.020;2024-01-07T13:20:01;-10.80;79.60
73438;DHT22;66471;56.532;21.020;2024-01-07T13:22:28;-10.90;80.60
73438;DHT22;66471;56.532;21.020;2024-01-07T13:24:55;-10.90;80.90
73438;DHT22;66471;56.532;21.020;2024-01-07T13:27:23;-10.90;80.90
73438;DHT22;66471;56.532;21.020;2024-01-07T13:29:51;-11.00;80.70
73438;DHT22;66471;56.532;21.020;2024-01-07T13:32:18;-11.00;80.80
73438;DHT22;66471;56.532;21.020;2024-01-07T13:34:47;-11.20;81.20
73438;DHT22;66471;56.532;21.020;2024-01-07T13:37:15;-11.20;81.50
73438;DHT22;66471;56.532;21.020;2024-01-07T13:39:42;-11.30;82.00
73438;DHT22;66471;56.532;21.020;2024-01-07T13:42:09;-11.20;81.90
73438;DHT22;66471;56.532;21.020;2024-01-07T13:44:36;-11.20;82.40
73438;DHT22;66471;56.532;21.020;2024-01-07T13:47:11;-11.30;82.80
73438;DHT22;66471;56.532;21.020;2024-01-07T13:49:43;-11.30;83.10
73438;DHT22;66471;56.532;21.020;2024-01-07T13:52:14;-11.30;83.40
73438;DHT22;66471;56.532;21.020;2024-01-07T13:57:06;-11.20;83.90
73438;DHT22;66471;56.532;21.020;2024-01-07T13:59:34;-11.30;83.90
73438;DHT22;66471;56.532;21.020;2024-01-07T14:02:01;-11.20;84.20
73438;DHT22;66471;56.532;21.020;2024-01-07T14:04:30;-11.40;84.20
73438;DHT22;66471;56.532;21.020;2024-01-07T14:06:59;-11.40;84.90
73438;DHT22;66471;56.532;21.020;2024-01-07T14:09:26;-11.30;85.20
73438;DHT22;66471;56.532;21.020;2024-01-07T14:11:58;-11.30;85.20
73438;DHT22;66471;56.532;21.020;2024-01-07T14:14:25;-11.40;85.70
73438;DHT22;66471;56.532;21.020;2024-01-07T14:16:53;-11.40;85.60
73438;DHT22;66471;56.532;21.020;2024-01-07T14:19:20;-11.40;85.90
73438;DHT22;66471;56.532;21.020;2024-01-07T14:21:49;-11.40;86.00
73438;DHT22;66471;56.532;21.020;2024-01-07T14:24:18;-11.40;86.20
73438;DHT22;66471;56.532;21.020;2024-01-07T14:26:46;-11.50;86.20
73438;DHT22;66471;56.532;21.020;2024-01-07T14:29:13;-11.50;86.40
73438;DHT22;66471;56.532;21.020;2024-01-07T14:31:44;-11.50;86.90
73438;DHT22;66471;56.532;21.020;2024-01-07T14:34:13;-11.50;86.80
73438;DHT22;66471;56.532;21.020;2024-01-07T14:36:40;-11.50;86.80
73438;DHT22;66471;56.532;21.020;2024-01-07T14:39:10;-11.60;87.00
